sensor_id;sensor_type;location;lat;lon;timestamp;pressure;altitude;pressure_sealevel;temperature;humidity
10470;BME280;5282;47.052;15.458;2023-04-21T00:00:23;97480.06;;;7.87;100.00
10470;BME280;5282;47.052;15.458;2023-04-21T00:02:50;97485.03;;;7.82;100.00
10470;BME280;5282;47.052;15.458;2023-04-21T00:05:17;97480.91;;;7.88;100.00
10470;BME280;5282;47.052;15.458;2023-04-21T00:07:44;97479.84;;;7.81;100.00
10470;BME280;5282;47.052;15.458;2023-04-21T00:10:11;97480.81;;;7.80;100.00
10470;BME280;5282;47.052;15.458;2023-04-21T00:12:39;97477.59;;;7.76;100.00
10470;BME280;5282;47.052;15.458;2023-04-21T00:15:07;97478.53;;;7.67;100.00
10470;BME280;5282;47.052;15.458;2023-04-21T00:17:34;97472.13;;;7.50;100.00
10470;BME280;5282;47.052;15.458;2023-04-21T00:20:01;97471.69;;;7.54;100.00
10470;BME280;5282;47.052;15.458;2023-04-21T00:22:29;97469.94;;;7.63;100.00
10470;BME280;5282;47.052;15.458;2023-04-21T00:24:56;97474.91;;;7.58;100.00
10470;BME280;5282;47.052;15.458;2023-04-21T00:27:23;97471.97;;;7.51;100.00
10470;BME280;5282;47.052;15.458;2023-04-21T00:29:51;97463.81;;;7.53;100.00
10470;BME280;5282;47.052;15.458;2023-04-21T00:32:18;97467.03;;;7.56;100.00
10470;BME280;5282;47.052;15.458;2023-04-21T00:34:45;97458.28;;;7.54;100.00
10470;BME280;5282;47.052;15.458;2023-04-21T00:37:12;97463.41;;;7.48;100.00
10470;BME280;5282;47.052;15.458;2023-04-21T00:39:39;97461.41;;;7.50;100.00
10470;BME280;5282;47.052;15.458;2023-04-21T00:42:05;97451.53;;;7.50;100.00
10470;BME280;5282;47.052;15.458;2023-04-21T00:44:32;97453.09;;;7.53;100.00
10470;BME280;5282;47.052;15.458;2023-04-21T00:47:01;97451.69;;;7.49;100.00
10470;BME280;5282;47.052;15.458;2023-04-21T00:49:28;97448.72;;;7.52;100.00
10470;BME280;5282;47.052;15.458;2023-04-21T00:51:55;97445.94;;;7.44;100.00
10470;BME280;5282;47.052;15.458;2023-04-21T00:54:23;97448.94;;;7.40;100.00
10470;BME280;5282;47.052;15.458;2023-04-21T00:56:50;97448.16;;;7.48;100.00
10470;BME280;5282;47.052;15.458;2023-04-21T00:59:17;97442.41;;;7.43;100.00
10470;BME280;5282;47.052;15.458;2023-04-21T01:01:44;97449.41;;;7.26;100.00
10470;BME280;5282;47.052;15.458;2023-04-21T01:04:12;97448.81;;;7.32;100.00
10470;BME280;5282;47.052;15.458;2023-04-21T01:06:41;97444.03;;;7.36;100.00
10470;BME280;5282;47.052;15.458;2023-04-21T01:09:08;97452.91;;;7.26;100.00
10470;BME280;5282;47.052;15.458;2023-04-21T01:11:36;97455.59;;;7.26;100.00
10470;BME280;5282;47.052;15.458;2023-04-21T01:14:04;97454.16;;;7.32;100.00
10470;BME280;5282;47.052;15.458;2023-04-21T01:16:31;97461.53;;;7.30;100.00
10470;BME280;5282;47.052;15.458;2023-04-21T01:18:58;97451.91;;;7.37;100.00
10470;BME280;5282;47.052;15.458;2023-04-21T01:21:27;97452.19;;;7.34;100.00
10470;BME280;5282;47.052;15.458;2023-04-21T01:23:58;97457.53;;;7.34;100.00
10470;BME280;5282;47.052;15.458;2023-04-21T01:26:25;97460.66;;;7.30;100.00
10470;BME280;5282;47.052;15.458;2023-04-21T01:28:55;97454.78;;;7.26;100.00
10470;BME280;5282;47.052;15.458;2023-04-21T01:31:23;97453.78;;;7.27;100.00
10470;BME280;5282;47.052;15.458;2023-04-21T01:33:51;97459.69;;;7.31;100.00
10470;BME280;5282;47.052;15.458;2023-04-21T01:36:18;97453.72;;;7.09;100.00
10470;BME280;5282;47.052;15.458;2023-04-21T01:38:46;97455.22;;;7.21;100.00
10470;BME280;5282;47.052;15.458;2023-04-21T01:41:14;97446.22;;;7.13;100.00
10470;BME280;5282;47.052;15.458;2023-04-21T01:43:41;97452.88;;;7.08;100.00
10470;BME280;5282;47.052;15.458;2023-04-21T01:46:08;97452.91;;;6.99;100.00
10470;BME280;5282;47.052;15.458;2023-04-21T01:48:36;97447.03;;;6.95;100.00
10470;BME280;5282;47.052;15.458;2023-04-21T01:51:03;97454.88;;;7.06;100.00
10470;BME280;5282;47.052;15.458;2023-04-21T01:53:30;97454.44;;;7.11;100.00
10470;BME280;5282;47.052;15.458;2023-04-21T01:55:59;97449.16;;;7.19;100.00
10470;BME280;5282;47.052;15.458;2023-04-21T01:58:27;97446.94;;;7.15;100.00
10470;BME280;5282;47.052;15.458;2023-04-21T02:00:54;97446.94;;;7.15;100.00
10470;BME280;5282;47.052;15.458;2023-04-21T02:03:21;97446.50;;;7.19;100.00
10470;BME280;5282;47.052;15.458;2023-04-21T02:05:49;97446.50;;;7.19;100.00
10470;BME280;5282;47.052;15.458;2023-04-21T02:08:16;97447.31;;;7.20;100.00
10470;BME280;5282;47.052;15.458;2023-04-21T02:10:43;97447.72;;;7.25;100.00
10470;BME280;5282;47.052;15.458;2023-04-21T02:13:10;97446.03;;;7.24;100.00
10470;BME280;5282;47.052;15.458;2023-04-21T02:15:39;97444.59;;;7.30;100.00
10470;BME280;5282;47.052;15.458;2023-04-21T02:18:06;97442.13;;;7.18;100.00
10470;BME280;5282;47.052;15.458;2023-04-21T02:20:33;97439.97;;;7.22;100.00
10470;BME280;5282;47.052;15.458;2023-04-21T02:23:01;97442.53;;;7.23;100.00
10470;BME280;5282;47.052;15.458;2023-04-21T02:25:28;97445.88;;;7.25;100.00
10470;BME280;5282;47.052;15.458;2023-04-21T02:27:55;97442.78;;;7.30;100.00
10470;BME280;5282;47.052;15.458;2023-04-21T02:30:22;97450.06;;;7.10;100.00
10470;BME280;5282;47.052;15.458;2023-04-21T02:32:50;97447.56;;;6.99;100.00
10470;BME280;5282;47.052;15.458;2023-04-21T02:35:17;97455.13;;;7.13;100.00
10470;BME280;5282;47.052;15.458;2023-04-21T02:37:44;97445.50;;;7.20;100.00
10470;BME280;5282;47.052;15.458;2023-04-21T02:40:11;97451.09;;;7.27;100.00
10470;BME280;5282;47.052;15.458;2023-04-21T02:42:38;97453.78;;;7.27;100.00
10470;BME280;5282;47.052;15.458;2023-04-21T02:45:06;97456.22;;;7.20;100.00
10470;BME280;5282;47.052;15.458;2023-04-21T02:47:33;97441.66;;;7.23;100.00
10470;BME280;5282;47.052;15.458;2023-04-21T02:50:02;97454.47;;;7.29;100.00
10470;BME280;5282;47.052;15.458;2023-04-21T02:52:29;97442.78;;;7.30;100.00
10470;BME280;5282;47.052;15.458;2023-04-21T02:54:56;97435.16;;;7.25;100.00
10470;BME280;5282;47.052;15.458;2023-04-21T02:57:23;97444.34;;;7.23;100.00
10470;BME280;5282;47.052;15.458;2023-04-21T02:59:50;97440.97;;;7.21;100.00
10470;BME280;5282;47.052;15.458;2023-04-21T03:02:18;97440.97;;;7.21;100.00
10470;BME280;5282;47.052;15.458;2023-04-21T03:04:48;97441.75;;;7.13;100.00
10470;BME280;5282;47.052;15.458;2023-04-21T03:07:21;97448.09;;;7.12;100.00
10470;BME280;5282;47.052;15.458;2023-04-21T03:09:49;97441.59;;;7.15;100.00
10470;BME280;5282;47.052;15.458;2023-04-21T03:12:20;97442.13;;;7.18;100.00
10470;BME280;5282;47.052;15.458;2023-04-21T03:14:47;97436.06;;;7.16;100.00
10470;BME280;5282;47.052;15.458;2023-04-21T03:17:15;97435.69;;;7.11;100.00
10470;BME280;5282;47.052;15.458;2023-04-21T03:19:42;97435.81;;;7.09;100.00
10470;BME280;5282;47.052;15.458;2023-04-21T03:22:09;97435.81;;;6.82;100.00
10470;BME280;5282;47.052;15.458;2023-04-21T03:24:37;97429.81;;;6.60;100.00
10470;BME280;5282;47.052;15.458;2023-04-21T03:27:04;97436.16;;;6.59;100.00
10470;BME280;5282;47.052;15.458;2023-04-21T03:29:31;97434.34;;;6.40;100.00
10470;BME280;5282;47.052;15.458;2023-04-21T03:32:00;97432.78;;;6.57;100.00
10470;BME280;5282;47.052;15.458;2023-04-21T03:34:27;97428.22;;;6.67;100.00
10470;BME280;5282;47.052;15.458;2023-04-21T03:36:54;97430.19;;;6.65;100.00
10470;BME280;5282;47.052;15.458;2023-04-21T03:39:23;97434.19;;;6.61;100.00
10470;BME280;5282;47.052;15.458;2023-04-21T03:41:52;97427.25;;;6.68;100.00
10470;BME280;5282;47.052;15.458;2023-04-21T03:44:19;97429.75;;;6.79;100.00
10470;BME280;5282;47.052;15.458;2023-04-21T03:46:46;97430.88;;;6.77;100.00
10470;BME280;5282;47.052;15.458;2023-04-21T03:49:15;97432.44;;;6.70;100.00
10470;BME280;5282;47.052;15.458;2023-04-21T03:51:41;97426.38;;;6.77;100.00
10470;BME280;5282;47.052;15.458;2023-04-21T03:54:09;97423.97;;;6.74;100.00
10470;BME280;5282;47.052;15.458;2023-04-21T03:56:35;97437.09;;;6.68;100.00
10470;BME280;5282;47.052;15.458;2023-04-21T03:59:04;97435.97;;;6.70;100.00
10470;BME280;5282;47.052;15.458;2023-04-21T04:01:31;97438.22;;;6.75;100.00
10470;BME280;5282;47.052;15.458;2023-04-21T04:03:58;97437.09;;;6.68;100.00
10470;BME280;5282;47.052;15.458;2023-04-21T04:06:25;97452.31;;;6.67;100.00
10470;BME280;5282;47.052;15.458;2023-04-21T04:09:02;97448.94;;;6.65;100.00
10470;BME280;5282;47.052;15.458;2023-04-21T04:11:29;97452.47;;;6.56;100.00
10470;BME280;5282;47.052;15.458;2023-04-21T04:13:56;97457.66;;;6.67;100.00
10470;BME280;5282;47.052;15.458;2023-04-21T04:16:24;97460.06;;;6.70;100.00
10470;BME280;5282;47.052;15.458;2023-04-21T04:18:53;97452.41;;;6.75;100.00
10470;BME280;5282;47.052;15.458;2023-04-21T04:21:20;97455.97;;;6.76;100.00
10470;BME280;5282;47.052;15.458;2023-04-21T04:23:49;97459.72;;;6.83;100.00
10470;BME280;5282;47.052;15.458;2023-04-21T04:26:16;97457.56;;;6.97;100.00
10470;BME280;5282;47.052;15.458;2023-04-21T04:28:43;97460.25;;;6.97;100.00
10470;BME280;5282;47.052;15.458;2023-04-21T04:31:10;97468.31;;;6.87;100.00
10470;BME280;5282;47.052;15.458;2023-04-21T04:33:40;97473.13;;;6.73;100.00
10470;BME280;5282;47.052;15.458;2023-04-21T04:36:08;97465.81;;;6.75;100.00
10470;BME280;5282;47.052;15.458;2023-04-21T04:38:35;97471.84;;;6.87;100.00
10470;BME280;5282;47.052;15.458;2023-04-21T04:41:02;97478.88;;;6.88;100.00
10470;BME280;5282;47.052;15.458;2023-04-21T04:43:29;97476.66;;;7.12;100.00
10470;BME280;5282;47.052;15.458;2023-04-21T04:46:00;97480.81;;;6.96;100.00
10470;BME280;5282;47.052;15.458;2023-04-21T04:48:27;97482.81;;;6.94;100.00
10470;BME280;5282;47.052;15.458;2023-04-21T04:50:55;97483.09;;;6.91;100.00
10470;BME280;5282;47.052;15.458;2023-04-21T04:53:22;97487.91;;;6.87;100.00
10470;BME280;5282;47.052;15.458;2023-04-21T04:55:50;97482.63;;;7.05;100.00
10470;BME280;5282;47.052;15.458;2023-04-21T04:58:18;97480.38;;;7.38;100.00
10470;BME280;5282;47.052;15.458;2023-04-21T05:00:45;97473.38;;;7.55;100.00
10470;BME280;5282;47.052;15.458;2023-04-21T05:03:12;97476.38;;;7.70;100.00
10470;BME280;5282;47.052;15.458;2023-04-21T05:05:39;97474.47;;;7.81;100.00
10470;BME280;5282;47.052;15.458;2023-04-21T05:08:07;97471.03;;;7.88;100.00
10470;BME280;5282;47.052;15.458;2023-04-21T05:10:34;97473.56;;;7.90;100.00
10470;BME280;5282;47.052;15.458;2023-04-21T05:13:01;97475.16;;;7.83;100.00
10470;BME280;5282;47.052;15.458;2023-04-21T05:15:28;97484.38;;;7.80;100.00
10470;BME280;5282;47.052;15.458;2023-04-21T05:17:55;97482.69;;;7.79;100.00
10470;BME280;5282;47.052;15.458;2023-04-21T05:20:22;97479.53;;;7.84;100.00
10470;BME280;5282;47.052;15.458;2023-04-21T05:22:49;97479.63;;;7.92;100.00
10470;BME280;5282;47.052;15.458;2023-04-21T05:25:17;97480.16;;;8.14;100.00
10470;BME280;5282;47.052;15.458;2023-04-21T05:27:44;97474.56;;;8.25;100.00
10470;BME280;5282;47.052;15.458;2023-04-21T05:30:12;97484.00;;;8.29;100.00
10470;BME280;5282;47.052;15.458;2023-04-21T05:32:40;97486.19;;;8.34;100.00
10470;BME280;5282;47.052;15.458;2023-04-21T05:35:07;97489.28;;;8.39;100.00
10470;BME280;5282;47.052;15.458;2023-04-21T05:37:37;97481.06;;;8.41;100.00
10470;BME280;5282;47.052;15.458;2023-04-21T05:40:05;97486.97;;;8.44;100.00
10470;BME280;5282;47.052;15.458;2023-04-21T05:42:36;97479.00;;;8.53;100.00
10470;BME280;5282;47.052;15.458;2023-04-21T05:45:03;97485.06;;;8.55;100.00
10470;BME280;5282;47.052;15.458;2023-04-21T05:47:30;97488.47;;;8.65;100.00
10470;BME280;5282;47.052;15.458;2023-04-21T05:49:57;97489.94;;;8.59;100.00
10470;BME280;5282;47.052;15.458;2023-04-21T05:52:24;97484.13;;;8.64;100.00
10470;BME280;5282;47.052;15.458;2023-04-21T05:54:51;97494.38;;;8.69;100.00
10470;BME280;5282;47.052;15.458;2023-04-21T05:57:18;97485.66;;;8.67;100.00
10470;BME280;5282;47.052;15.458;2023-04-21T05:59:46;97491.38;;;8.72;100.00
10470;BME280;5282;47.052;15.458;2023-04-21T06:02:13;97491.13;;;8.83;100.00
10470;BME280;5282;47.052;15.458;2023-04-21T06:04:40;97495.44;;;8.76;100.00
10470;BME280;5282;47.052;15.458;2023-04-21T06:07:08;97497.66;;;8.80;100.00
10470;BME280;5282;47.052;15.458;2023-04-21T06:09:38;97493.94;;;9.00;100.00
10470;BME280;5282;47.052;15.458;2023-04-21T06:12:06;97498.09;;;8.94;100.00
10470;BME280;5282;47.052;15.458;2023-04-21T06:14:33;97498.56;;;8.89;100.00
10470;BME280;5282;47.052;15.458;2023-04-21T06:17:01;97497.22;;;8.93;100.00
10470;BME280;5282;47.052;15.458;2023-04-21T06:19:28;97496.94;;;8.97;100.00
10470;BME280;5282;47.052;15.458;2023-04-21T06:21:55;97499.72;;;9.13;100.00
10470;BME280;5282;47.052;15.458;2023-04-21T06:24:23;97495.91;;;9.24;100.00
10470;BME280;5282;47.052;15.458;2023-04-21T06:26:51;97501.28;;;9.24;100.00
10470;BME280;5282;47.052;15.458;2023-04-21T06:29:18;97502.00;;;9.34;100.00
10470;BME280;5282;47.052;15.458;2023-04-21T06:31:45;97499.22;;;9.52;100.00
10470;BME280;5282;47.052;15.458;2023-04-21T06:34:13;97503.47;;;9.63;100.00
10470;BME280;5282;47.052;15.458;2023-04-21T06:36:40;97494.13;;;9.76;100.00
10470;BME280;5282;47.052;15.458;2023-04-21T06:39:07;97488.31;;;10.05;100.00
10470;BME280;5282;47.052;15.458;2023-04-21T06:41:33;97491.00;;;10.22;100.00
10470;BME280;5282;47.052;15.458;2023-04-21T06:44:00;97498.75;;;10.25;100.00
10470;BME280;5282;47.052;15.458;2023-04-21T06:46:27;97497.25;;;10.47;100.00
10470;BME280;5282;47.052;15.458;2023-04-21T06:48:54;97490.72;;;10.58;100.00
10470;BME280;5282;47.052;15.458;2023-04-21T06:51:23;97489.38;;;10.70;100.00
10470;BME280;5282;47.052;15.458;2023-04-21T06:53:49;97495.25;;;10.74;100.00
10470;BME280;5282;47.052;15.458;2023-04-21T06:56:16;97486.31;;;10.82;100.00
10470;BME280;5282;47.052;15.458;2023-04-21T06:58:43;97489.34;;;10.78;100.00
10470;BME280;5282;47.052;15.458;2023-04-21T07:01:11;97491.53;;;10.75;100.00
10470;BME280;5282;47.052;15.458;2023-04-21T07:03:40;97496.06;;;10.91;100.00
10470;BME280;5282;47.052;15.458;2023-04-21T07:06:07;97500.94;;;10.95;100.00
10470;BME280;5282;47.052;15.458;2023-04-21T07:08:35;97496.56;;;11.03;100.00
10470;BME280;5282;47.052;15.458;2023-04-21T07:11:02;97498.91;;;11.06;100.00
10470;BME280;5282;47.052;15.458;2023-04-21T07:13:29;97503.13;;;11.08;100.00
10470;BME280;5282;47.052;15.458;2023-04-21T07:15:56;97501.44;;;11.07;100.00
10470;BME280;5282;47.052;15.458;2023-04-21T07:18:24;97497.91;;;11.15;100.00
10470;BME280;5282;47.052;15.458;2023-04-21T07:20:51;97495.00;;;11.17;100.00
10470;BME280;5282;47.052;15.458;2023-04-21T07:23:18;97500.22;;;11.26;100.00
10470;BME280;5282;47.052;15.458;2023-04-21T07:25:46;97491.63;;;11.31;100.00
10470;BME280;5282;47.052;15.458;2023-04-21T07:28:13;97499.38;;;11.26;100.00
10470;BME280;5282;47.052;15.458;2023-04-21T07:30:40;97491.13;;;11.19;100.00
10470;BME280;5282;47.052;15.458;2023-04-21T07:33:07;97509.50;;;11.16;100.00
10470;BME280;5282;47.052;15.458;2023-04-21T07:35:34;97510.84;;;11.20;100.00
10470;BME280;5282;47.052;15.458;2023-04-21T07:38:01;97503.03;;;11.41;100.00
10470;BME280;5282;47.052;15.458;2023-04-21T07:40:28;97504.16;;;11.55;100.00
10470;BME280;5282;47.052;15.458;2023-04-21T07:42:57;97502.56;;;11.69;100.00
10470;BME280;5282;47.052;15.458;2023-04-21T07:45:24;97507.28;;;11.76;100.00
10470;BME280;5282;47.052;15.458;2023-04-21T07:47:51;97509.09;;;11.83;100.00
10470;BME280;5282;47.052;15.458;2023-04-21T07:50:18;97504.25;;;11.79;100.00
10470;BME280;5282;47.052;15.458;2023-04-21T07:52:47;97507.50;;;11.97;100.00
10470;BME280;5282;47.052;15.458;2023-04-21T07:55:14;97506.13;;;12.10;100.00
10470;BME280;5282;47.052;15.458;2023-04-21T07:57:41;97494.34;;;12.02;100.00
10470;BME280;5282;47.052;15.458;2023-04-21T08:00:10;97506.19;;;12.01;100.00
10470;BME280;5282;47.052;15.458;2023-04-21T08:02:39;97504.72;;;12.14;100.00
10470;BME280;5282;47.052;15.458;2023-04-21T08:05:06;97507.41;;;12.14;100.00
10470;BME280;5282;47.052;15.458;2023-04-21T08:07:33;97501.47;;;12.27;100.00
10470;BME280;5282;47.052;15.458;2023-04-21T08:10:03;97501.44;;;12.50;100.00
10470;BME280;5282;47.052;15.458;2023-04-21T08:12:31;97502.16;;;12.67;100.00
10470;BME280;5282;47.052;15.458;2023-04-21T08:14:58;97498.53;;;12.75;100.00
10470;BME280;5282;47.052;15.458;2023-04-21T08:17:31;97497.84;;;12.58;100.00
10470;BME280;5282;47.052;15.458;2023-04-21T08:19:58;97498.69;;;12.58;100.00
10470;BME280;5282;47.052;15.458;2023-04-21T08:22:26;97501.72;;;12.78;100.00
10470;BME280;5282;47.052;15.458;2023-04-21T08:24:52;97501.31;;;12.67;100.00
10470;BME280;5282;47.052;15.458;2023-04-21T08:27:19;97495.63;;;12.61;100.00
10470;BME280;5282;47.052;15.458;2023-04-21T08:29:46;97484.69;;;12.93;100.00
10470;BME280;5282;47.052;15.458;2023-04-21T08:32:13;97495.16;;;13.11;100.00
10470;BME280;5282;47.052;15.458;2023-04-21T08:34:41;97497.09;;;13.02;100.00
10470;BME280;5282;47.052;15.458;2023-04-21T08:37:10;97493.28;;;12.96;100.00
10470;BME280;5282;47.052;15.458;2023-04-21T08:39:38;97491.16;;;13.07;100.00
10470;BME280;5282;47.052;15.458;2023-04-21T08:42:05;97487.16;;;13.03;100.00
10470;BME280;5282;47.052;15.458;2023-04-21T08:44:33;97489.50;;;13.21;100.00
10470;BME280;5282;47.052;15.458;2023-04-21T08:47:02;97480.38;;;13.37;100.00
10470;BME280;5282;47.052;15.458;2023-04-21T08:49:29;97485.97;;;13.65;100.00
10470;BME280;5282;47.052;15.458;2023-04-21T08:52:00;97484.00;;;13.74;100.00
10470;BME280;5282;47.052;15.458;2023-04-21T08:54:27;97479.13;;;13.69;100.00
10470;BME280;5282;47.052;15.458;2023-04-21T08:56:55;97482.06;;;14.04;100.00
10470;BME280;5282;47.052;15.458;2023-04-21T08:59:22;97484.81;;;14.26;100.00
10470;BME280;5282;47.052;15.458;2023-04-21T09:02:10;97486.41;;;14.21;100.00
10470;BME280;5282;47.052;15.458;2023-04-21T09:04:38;97479.69;;;14.16;100.00
10470;BME280;5282;47.052;15.458;2023-04-21T09:07:09;97477.38;;;14.13;100.00
10470;BME280;5282;47.052;15.458;2023-04-21T09:09:50;97476.63;;;14.41;100.00
10470;BME280;5282;47.052;15.458;2023-04-21T09:12:18;97481.81;;;13.99;100.00
10470;BME280;5282;47.052;15.458;2023-04-21T09:14:45;97481.59;;;14.01;100.00
10470;BME280;5282;47.052;15.458;2023-04-21T09:17:14;97478.41;;;14.12;100.00
10470;BME280;5282;47.052;15.458;2023-04-21T09:19:44;97478.91;;;14.23;100.00
10470;BME280;5282;47.052;15.458;2023-04-21T09:22:15;97480.72;;;14.15;100.00
10470;BME280;5282;47.052;15.458;2023-04-21T09:24:46;97482.97;;;14.12;100.00
10470;BME280;5282;47.052;15.458;2023-04-21T09:27:14;97471.94;;;13.92;100.00
10470;BME280;5282;47.052;15.458;2023-04-21T09:29:45;97474.06;;;13.96;100.00
10470;BME280;5282;47.052;15.458;2023-04-21T09:32:16;97480.16;;;14.20;100.00
10470;BME280;5282;47.052;15.458;2023-04-21T09:34:43;97479.00;;;14.29;100.00
10470;BME280;5282;47.052;15.458;2023-04-21T09:37:11;97479.56;;;14.25;100.00
10470;BME280;5282;47.052;15.458;2023-04-21T09:39:44;97475.44;;;14.07;100.00
10470;BME280;5282;47.052;15.458;2023-04-21T09:42:11;97474.81;;;14.27;100.00
10470;BME280;5282;47.052;15.458;2023-04-21T09:44:38;97471.94;;;14.13;100.00
10470;BME280;5282;47.052;15.458;2023-04-21T09:47:09;97463.59;;;14.30;100.00
10470;BME280;5282;47.052;15.458;2023-04-21T09:49:38;97469.00;;;14.30;100.00
10470;BME280;5282;47.052;15.458;2023-04-21T09:52:10;97467.63;;;14.41;100.00
10470;BME280;5282;47.052;15.458;2023-04-21T09:54:44;97461.91;;;14.50;100.00
10470;BME280;5282;47.052;15.458;2023-04-21T09:57:18;97463.97;;;14.48;100.00
10470;BME280;5282;47.052;15.458;2023-04-21T09:59:50;97460.22;;;14.49;100.00
10470;BME280;5282;47.052;15.458;2023-04-21T10:02:23;97458.94;;;14.45;100.00
10470;BME280;5282;47.052;15.458;2023-04-21T10:04:51;97453.50;;;14.45;100.00
10470;BME280;5282;47.052;15.458;2023-04-21T10:07:18;97453.25;;;14.62;100.00
10470;BME280;5282;47.052;15.458;2023-04-21T10:09:48;97456.09;;;14.54;100.00
10470;BME280;5282;47.052;15.458;2023-04-21T10:12:17;97457.53;;;14.49;100.00
10470;BME280;5282;47.052;15.458;2023-04-21T10:14:44;97456.72;;;14.56;100.00
10470;BME280;5282;47.052;15.458;2023-04-21T10:17:11;97451.84;;;14.66;100.00
10470;BME280;5282;47.052;15.458;2023-04-21T10:19:47;97453.69;;;14.65;100.00
10470;BME280;5282;47.052;15.458;2023-04-21T10:22:25;97453.47;;;14.60;100.00
10470;BME280;5282;47.052;15.458;2023-04-21T10:24:56;97448.25;;;14.37;100.00
10470;BME280;5282;47.052;15.458;2023-04-21T10:27:31;97446.69;;;14.49;100.00
10470;BME280;5282;47.052;15.458;2023-04-21T10:29:59;97443.97;;;14.49;100.00
10470;BME280;5282;47.052;15.458;2023-04-21T10:32:39;97444.63;;;14.73;100.00
10470;BME280;5282;47.052;15.458;2023-04-21T10:35:10;97440.56;;;14.91;100.00
10470;BME280;5282;47.052;15.458;2023-04-21T10:37:37;97440.03;;;15.02;100.00
10470;BME280;5282;47.052;15.458;2023-04-21T10:40:34;97434.03;;;15.49;97.41
10470;BME280;5282;47.052;15.458;2023-04-21T10:43:02;97429.34;;;15.78;90.07
10470;BME280;5282;47.052;15.458;2023-04-21T10:45:29;97427.38;;;16.07;89.23
10470;BME280;5282;47.052;15.458;2023-04-21T10:47:59;97431.59;;;16.36;89.99
10470;BME280;5282;47.052;15.458;2023-04-21T10:50:28;97430.53;;;16.24;79.38
10470;BME280;5282;47.052;15.458;2023-04-21T10:53:06;97431.00;;;16.54;79.76
10470;BME280;5282;47.052;15.458;2023-04-21T10:55:36;97425.16;;;16.57;79.75
10470;BME280;5282;47.052;15.458;2023-04-21T10:58:05;97420.97;;;16.61;79.50
10470;BME280;5282;47.052;15.458;2023-04-21T11:00:35;97425.97;;;16.51;75.75
10470;BME280;5282;47.052;15.458;2023-04-21T11:03:04;97425.53;;;16.14;77.55
10470;BME280;5282;47.052;15.458;2023-04-21T11:05:36;97426.34;;;16.08;79.23
10470;BME280;5282;47.052;15.458;2023-04-21T11:08:12;97420.34;;;16.53;84.63
10470;BME280;5282;47.052;15.458;2023-04-21T11:10:49;97417.19;;;16.62;78.98
10470;BME280;5282;47.052;15.458;2023-04-21T11:13:19;97419.09;;;16.62;81.94
10470;BME280;5282;47.052;15.458;2023-04-21T11:15:57;97408.41;;;16.40;78.08
10470;BME280;5282;47.052;15.458;2023-04-21T11:18:38;97412.38;;;16.24;78.78
10470;BME280;5282;47.052;15.458;2023-04-21T11:21:07;97412.81;;;16.48;77.27
10470;BME280;5282;47.052;15.458;2023-04-21T11:23:38;97413.88;;;16.54;80.28
10470;BME280;5282;47.052;15.458;2023-04-21T11:26:07;97408.59;;;16.92;76.78
10470;BME280;5282;47.052;15.458;2023-04-21T11:28:34;97411.47;;;17.38;70.41
10470;BME280;5282;47.052;15.458;2023-04-21T11:31:01;97406.66;;;17.40;78.61
10470;BME280;5282;47.052;15.458;2023-04-21T11:33:29;97395.47;;;18.07;67.15
10470;BME280;5282;47.052;15.458;2023-04-21T11:35:56;97399.53;;;17.84;62.85
10470;BME280;5282;47.052;15.458;2023-04-21T11:38:25;97403.56;;;18.21;62.31
10470;BME280;5282;47.052;15.458;2023-04-21T11:40:52;97397.47;;;17.80;57.35
10470;BME280;5282;47.052;15.458;2023-04-21T11:43:21;97405.59;;;17.41;61.18
10470;BME280;5282;47.052;15.458;2023-04-21T11:45:48;97393.97;;;18.11;62.20
10470;BME280;5282;47.052;15.458;2023-04-21T11:48:16;97404.72;;;17.99;60.30
10470;BME280;5282;47.052;15.458;2023-04-21T11:50:49;97392.09;;;17.66;63.11
10470;BME280;5282;47.052;15.458;2023-04-21T11:53:16;97396.47;;;18.13;60.20
10470;BME280;5282;47.052;15.458;2023-04-21T11:55:44;97391.13;;;18.25;59.64
10470;BME280;5282;47.052;15.458;2023-04-21T11:58:11;97393.06;;;18.49;55.99
10470;BME280;5282;47.052;15.458;2023-04-21T12:00:44;97389.94;;;18.21;60.38
10470;BME280;5282;47.052;15.458;2023-04-21T12:03:14;97389.22;;;18.00;58.21
10470;BME280;5282;47.052;15.458;2023-04-21T12:05:41;97386.44;;;18.39;57.62
10470;BME280;5282;47.052;15.458;2023-04-21T12:08:12;97388.75;;;18.35;54.45
10470;BME280;5282;47.052;15.458;2023-04-21T12:10:43;97398.56;;;18.11;56.48
10470;BME280;5282;47.052;15.458;2023-04-21T12:13:11;97393.47;;;17.37;52.33
10470;BME280;5282;47.052;15.458;2023-04-21T12:15:38;97387.69;;;17.00;55.98
10470;BME280;5282;47.052;15.458;2023-04-21T12:18:11;97393.53;;;17.10;58.12
10470;BME280;5282;47.052;15.458;2023-04-21T12:20:47;97384.72;;;17.21;53.39
10470;BME280;5282;47.052;15.458;2023-04-21T12:23:14;97391.44;;;17.12;52.07
10470;BME280;5282;47.052;15.458;2023-04-21T12:25:41;97389.19;;;16.95;57.69
10470;BME280;5282;47.052;15.458;2023-04-21T12:28:10;97397.53;;;16.80;64.49
10470;BME280;5282;47.052;15.458;2023-04-21T12:30:37;97387.72;;;16.66;83.69
10470;BME280;5282;47.052;15.458;2023-04-21T12:33:04;97392.53;;;16.37;100.00
10470;BME280;5282;47.052;15.458;2023-04-21T12:35:32;97383.31;;;16.18;100.00
10470;BME280;5282;47.052;15.458;2023-04-21T12:38:00;97397.28;;;15.95;100.00
10470;BME280;5282;47.052;15.458;2023-04-21T12:40:27;97398.84;;;15.69;100.00
10470;BME280;5282;47.052;15.458;2023-04-21T12:42:56;97407.72;;;15.42;100.00
10470;BME280;5282;47.052;15.458;2023-04-21T12:45:23;97414.84;;;15.08;100.00
10470;BME280;5282;47.052;15.458;2023-04-21T12:47:50;97419.31;;;14.88;100.00
10470;BME280;5282;47.052;15.458;2023-04-21T12:50:17;97418.97;;;14.26;100.00
10470;BME280;5282;47.052;15.458;2023-04-21T12:52:45;97420.00;;;14.25;100.00
10470;BME280;5282;47.052;15.458;2023-04-21T12:55:13;97423.38;;;13.68;100.00
10470;BME280;5282;47.052;15.458;2023-04-21T12:57:40;97423.84;;;13.72;100.00
10470;BME280;5282;47.052;15.458;2023-04-21T13:00:08;97426.19;;;13.30;100.00
10470;BME280;5282;47.052;15.458;2023-04-21T13:02:37;97426.22;;;13.45;100.00